createdAt,value
2023-03-13T00:00:03.167Z,82.47
2023-03-13T00:01:02.758Z,82.37
2023-03-13T00:02:02.544Z,82.17
2023-03-13T00:03:02.773Z,82.31
2023-03-13T00:04:02.973Z,82.27
2023-03-13T00:05:02.787Z,82.17
2023-03-13T00:06:02.676Z,82.57
2023-03-13T00:07:03.263Z,82.88
2023-03-13T00:08:02.650Z,82.27
2023-03-13T00:09:03.085Z,82.27
2023-03-13T00:10:02.697Z,81.96
2023-03-13T00:11:02.922Z,81.76
2023-03-13T00:12:02.341Z,81.76
2023-03-13T00:13:01.937Z,81.96
2023-03-13T00:14:01.976Z,82.27
2023-03-13T00:15:02.058Z,82.27
2023-03-13T00:16:02.378Z,82.03
2023-03-13T00:17:02.896Z,82.13
2023-03-13T00:18:02.600Z,81.82
2023-03-13T00:19:02.662Z,82.33
2023-03-13T00:20:02.335Z,82.03
2023-03-13T00:21:02.341Z,81.31
2023-03-13T00:22:02.737Z,81.31
2023-03-13T00:23:03.235Z,81.93
2023-03-13T00:24:02.930Z,81.62
2023-03-13T00:25:03.249Z,81.93
2023-03-13T00:26:03.212Z,81.82
2023-03-13T00:27:02.166Z,81.93
2023-03-13T00:28:02.533Z,82.03
2023-03-13T00:29:02.114Z,82.07
2023-03-13T00:30:02.722Z,82.37
2023-03-13T00:31:02.533Z,82.33
2023-03-13T00:32:02.758Z,81.82
2023-03-13T00:33:03.168Z,81.82
2023-03-13T00:34:03.008Z,81.82
2023-03-13T00:35:02.902Z,81.52
2023-03-13T00:36:02.767Z,81.72
2023-03-13T00:37:02.821Z,81.72
2023-03-13T00:38:02.556Z,81.62
2023-03-13T00:39:02.307Z,81.52
2023-03-13T00:40:02.785Z,81.45
2023-03-13T00:41:02.412Z,81.76
2023-03-13T00:42:02.914Z,81.86
2023-03-13T00:43:02.718Z,81.82
2023-03-13T00:44:03.027Z,81.41
2023-03-13T00:45:02.734Z,82.07
2023-03-13T00:46:02.784Z,82.07
2023-03-13T00:47:03.200Z,81.66
2023-03-13T00:48:03.280Z,81.72
2023-03-13T00:49:02.849Z,81.62
2023-03-13T00:50:02.898Z,81.52
2023-03-13T00:51:03.205Z,81.52
2023-03-13T00:52:02.154Z,82.17
2023-03-13T00:53:02.138Z,82.23
2023-03-13T00:54:02.012Z,82.17
2023-03-13T00:55:02.398Z,82.37
2023-03-13T00:56:02.135Z,82.84
2023-03-13T00:57:02.652Z,82.64
2023-03-13T00:58:02.370Z,82.47
2023-03-13T00:59:02.644Z,83.09
2023-03-13T01:00:02.965Z,83.18
2023-03-13T01:01:02.334Z,83.80
2023-03-13T01:02:02.522Z,83.80
2023-03-13T01:03:02.326Z,83.90
2023-03-13T01:04:01.988Z,84.41
2023-03-13T01:05:02.237Z,84.20
2023-03-13T01:06:02.226Z,84.11
2023-03-13T01:07:02.979Z,84.45
2023-03-13T01:08:02.947Z,84.51
2023-03-13T01:09:02.417Z,84.86
2023-03-13T01:10:02.886Z,85.37
2023-03-13T01:11:02.826Z,85.68
2023-03-13T01:12:02.837Z,85.88
2023-03-13T01:13:03.335Z,86.29
2023-03-13T01:14:02.939Z,86.69
2023-03-13T01:15:02.717Z,86.90
2023-03-13T01:16:02.752Z,86.59
2023-03-13T01:17:02.003Z,87.00
2023-03-13T01:18:02.029Z,87.24
2023-03-13T01:19:02.215Z,87.45
2023-03-13T01:20:02.549Z,87.76
2023-03-13T01:21:02.279Z,87.76
2023-03-13T01:22:02.394Z,88.47
2023-03-13T01:23:02.690Z,88.78
2023-03-13T01:24:03.051Z,88.84
2023-03-13T01:25:02.518Z,88.88
2023-03-13T01:26:02.477Z,88.98
2023-03-13T01:27:02.949Z,89.69
2023-03-13T01:28:03.151Z,89.59
2023-03-13T01:29:02.967Z,89.90
2023-03-13T01:30:03.201Z,90.00
2023-03-13T01:31:02.684Z,90.51
2023-03-13T01:32:01.974Z,90.51
2023-03-13T01:33:02.070Z,90.81
2023-03-13T01:34:02.055Z,91.02
2023-03-13T01:35:01.996Z,91.57
2023-03-13T01:36:02.497Z,91.88
2023-03-13T01:37:02.223Z,92.39
2023-03-13T01:38:02.186Z,92.49
2023-03-13T01:39:02.041Z,93.10
2023-03-13T01:40:02.173Z,93.00
2023-03-13T01:41:02.005Z,93.31
2023-03-13T01:42:02.995Z,93.31
2023-03-13T01:43:02.574Z,93.31
2023-03-13T01:44:03.233Z,93.31
2023-03-13T01:45:03.098Z,93.51
2023-03-13T01:46:02.960Z,93.10
2023-03-13T01:47:02.043Z,93.31
2023-03-13T01:48:02.140Z,93.62
2023-03-13T01:49:02.048Z,93.62
2023-03-13T01:50:02.218Z,93.62
2023-03-13T01:51:02.438Z,93.82
2023-03-13T01:52:02.585Z,93.62
2023-03-13T01:53:02.460Z,93.71
2023-03-13T01:54:03.122Z,93.92
2023-03-13T01:55:02.649Z,93.51
2023-03-13T01:56:02.900Z,93.41
2023-03-13T01:57:01.857Z,93.41
2023-03-13T01:58:01.917Z,93.16
2023-03-13T01:59:02.372Z,93.06
2023-03-13T02:00:02.431Z,92.86
2023-03-13T02:01:02.009Z,92.86
2023-03-13T02:02:03.248Z,92.90
2023-03-13T02:03:03.388Z,93.00
2023-03-13T02:04:03.474Z,93.21
2023-03-13T02:05:03.628Z,93.21
2023-03-13T02:06:02.958Z,93.00
2023-03-13T02:07:03.079Z,93.10
2023-03-13T02:08:03.617Z,92.80
2023-03-13T02:09:03.512Z,92.80
2023-03-13T02:10:03.123Z,93.00
2023-03-13T02:11:03.561Z,92.90
2023-03-13T02:12:02.867Z,92.90
2023-03-13T02:13:02.728Z,93.21
2023-03-13T02:14:02.811Z,93.31
2023-03-13T02:15:02.902Z,93.62
2023-03-13T02:16:02.609Z,93.62
2023-03-13T02:17:02.830Z,93.41
2023-03-13T02:18:02.789Z,92.90
2023-03-13T02:19:02.948Z,93.10
2023-03-13T02:20:02.458Z,93.41
2023-03-13T02:21:02.985Z,93.41
2023-03-13T02:22:02.657Z,93.31
2023-03-13T02:23:03.061Z,93.62
2023-03-13T02:24:02.859Z,93.16
2023-03-13T02:25:02.946Z,93.21
2023-03-13T02:26:02.630Z,93.16
2023-03-13T02:27:03.022Z,93.06
2023-03-13T02:28:02.506Z,93.10
2023-03-13T02:29:02.975Z,93.10
2023-03-13T02:30:02.728Z,93.62
2023-03-13T02:31:03.185Z,93.71
2023-03-13T02:32:03.176Z,93.92
2023-03-13T02:33:03.490Z,93.92
2023-03-13T02:34:02.895Z,93.92
2023-03-13T02:35:03.285Z,94.23
2023-03-13T02:36:03.014Z,94.12
2023-03-13T02:37:03.562Z,93.92
2023-03-13T02:38:03.005Z,93.06
2023-03-13T02:39:03.060Z,93.47
2023-03-13T02:40:03.483Z,93.31
2023-03-13T02:41:03.062Z,93.41
2023-03-13T02:42:03.159Z,93.92
2023-03-13T02:43:03.203Z,94.74
2023-03-13T02:44:02.717Z,94.33
2023-03-13T02:45:02.810Z,94.84
2023-03-13T02:46:03.288Z,94.89
2023-03-13T02:47:03.839Z,95.50
2023-03-13T02:48:03.500Z,95.50
2023-03-13T02:49:03.293Z,95.15
2023-03-13T02:50:03.346Z,94.53
2023-03-13T02:51:03.417Z,94.33
2023-03-13T02:52:02.615Z,94.43
2023-03-13T02:53:02.445Z,94.53
2023-03-13T02:54:02.862Z,95.15
2023-03-13T02:55:02.763Z,95.25
2023-03-13T02:56:02.590Z,95.56
2023-03-13T02:57:03.005Z,95.86
2023-03-13T02:58:02.851Z,96.17
2023-03-13T02:59:02.818Z,96.47
2023-03-13T03:00:02.802Z,96.68
2023-03-13T03:01:02.559Z,96.63
2023-03-13T03:02:02.001Z,96.84
2023-03-13T03:03:02.226Z,96.73
2023-03-13T03:04:02.234Z,96.94
2023-03-13T03:05:02.312Z,96.84
2023-03-13T03:06:02.009Z,96.94
2023-03-13T03:07:02.666Z,96.94
2023-03-13T03:08:02.923Z,97.14
2023-03-13T03:09:02.398Z,96.73
2023-03-13T03:10:02.967Z,96.63
2023-03-13T03:11:02.970Z,96.63
2023-03-13T03:12:03.122Z,96.89
2023-03-13T03:13:02.506Z,97.00
2023-03-13T03:14:02.768Z,96.79
2023-03-13T03:15:02.480Z,96.79
2023-03-13T03:16:02.757Z,96.48
2023-03-13T03:17:03.077Z,96.69
2023-03-13T03:18:02.924Z,96.89
2023-03-13T03:19:03.237Z,96.89
2023-03-13T03:20:03.067Z,96.59
2023-03-13T03:21:02.982Z,96.89
2023-03-13T03:22:01.687Z,96.89
2023-03-13T03:23:02.286Z,96.69
2023-03-13T03:24:01.758Z,96.59
2023-03-13T03:25:02.168Z,96.48
2023-03-13T03:26:01.962Z,96.59
2023-03-13T03:27:01.877Z,96.79
2023-03-13T03:28:01.947Z,96.69
2023-03-13T03:29:02.220Z,96.23
2023-03-13T03:30:02.160Z,95.73
2023-03-13T03:31:02.128Z,95.32
2023-03-13T03:32:02.633Z,95.32
2023-03-13T03:33:02.619Z,95.42
2023-03-13T03:34:02.865Z,95.32
2023-03-13T03:35:02.676Z,95.21
2023-03-13T03:36:03.066Z,95.12
2023-03-13T03:37:02.194Z,95.01
2023-03-13T03:38:02.670Z,95.21
2023-03-13T03:39:02.702Z,94.71
2023-03-13T03:40:02.719Z,94.71
2023-03-13T03:41:02.250Z,94.60
2023-03-13T03:42:02.327Z,94.81
2023-03-13T03:43:02.787Z,94.81
2023-03-13T03:44:02.552Z,94.81
2023-03-13T03:45:02.686Z,94.87
2023-03-13T03:46:02.310Z,94.66
2023-03-13T03:47:02.721Z,94.35
2023-03-13T03:48:02.668Z,94.35
2023-03-13T03:49:02.847Z,94.56
2023-03-13T03:50:02.570Z,94.56
2023-03-13T03:51:03.006Z,94.35
2023-03-13T03:52:01.801Z,94.26
2023-03-13T03:53:02.029Z,94.35
2023-03-13T03:54:01.776Z,94.15
2023-03-13T03:55:01.619Z,94.35
2023-03-13T03:56:01.723Z,94.46
2023-03-13T03:57:02.066Z,94.35
2023-03-13T03:58:02.379Z,94.35
2023-03-13T03:59:02.054Z,94.05
2023-03-13T04:00:02.602Z,93.74
2023-03-13T04:01:02.179Z,93.80
2023-03-13T04:02:02.644Z,93.80
2023-03-13T04:03:02.975Z,93.70
2023-03-13T04:04:02.527Z,93.60
2023-03-13T04:05:02.997Z,93.70
2023-03-13T04:06:03.114Z,93.70
2023-03-13T04:07:03.156Z,93.70
2023-03-13T04:08:03.567Z,93.40
2023-03-13T04:09:03.636Z,93.70
2023-03-13T04:10:03.123Z,93.40
2023-03-13T04:11:03.095Z,93.50
2023-03-13T04:12:02.597Z,93.19
2023-03-13T04:13:02.884Z,93.29
2023-03-13T04:14:02.416Z,93.09
2023-03-13T04:15:02.885Z,93.19
2023-03-13T04:16:02.457Z,93.19
2023-03-13T04:17:02.965Z,93.09
2023-03-13T04:18:02.985Z,92.94
2023-03-13T04:19:02.621Z,93.25
2023-03-13T04:20:03.034Z,93.05
2023-03-13T04:21:02.715Z,93.15
2023-03-13T04:22:03.098Z,93.05
2023-03-13T04:23:02.846Z,93.05
2023-03-13T04:24:03.234Z,92.84
2023-03-13T04:25:03.146Z,92.94
2023-03-13T04:26:03.402Z,93.05
2023-03-13T04:27:03.551Z,93.25
2023-03-13T04:28:04.153Z,93.35
2023-03-13T04:29:03.568Z,93.15
2023-03-13T04:30:03.871Z,92.64
2023-03-13T04:31:03.696Z,92.94
2023-03-13T04:32:02.704Z,92.74
2023-03-13T04:33:02.454Z,92.74
2023-03-13T04:34:02.852Z,92.44
2023-03-13T04:35:02.617Z,92.54
2023-03-13T04:36:02.456Z,92.54
2023-03-13T04:37:02.897Z,92.74
2023-03-13T04:38:02.615Z,92.44
2023-03-13T04:39:02.910Z,92.74
2023-03-13T04:40:03.200Z,92.94
2023-03-13T04:41:02.637Z,92.54
2023-03-13T04:42:02.986Z,92.94
2023-03-13T04:43:02.709Z,93.10
2023-03-13T04:44:03.000Z,93.10
2023-03-13T04:45:03.379Z,93.10
2023-03-13T04:46:02.930Z,93.01
2023-03-13T04:47:03.233Z,93.21
2023-03-13T04:48:03.054Z,92.80
2023-03-13T04:49:03.442Z,93.10
2023-03-13T04:50:03.216Z,93.21
2023-03-13T04:51:03.503Z,93.01
2023-03-13T04:52:02.875Z,93.15
2023-03-13T04:53:02.662Z,93.15
2023-03-13T04:54:02.946Z,93.25
2023-03-13T04:55:02.681Z,93.05
2023-03-13T04:56:03.153Z,93.21
2023-03-13T04:57:03.352Z,93.31
2023-03-13T04:58:03.075Z,93.21
2023-03-13T04:59:03.367Z,93.01
2023-03-13T05:00:03.130Z,92.90
2023-03-13T05:01:03.097Z,93.10
2023-03-13T05:02:02.547Z,93.10
2023-03-13T05:03:02.301Z,92.55
2023-03-13T05:04:02.774Z,92.40
2023-03-13T05:05:02.843Z,92.49
2023-03-13T05:06:02.336Z,92.35
2023-03-13T05:07:02.809Z,92.25
2023-03-13T05:08:03.016Z,92.19
2023-03-13T05:09:02.528Z,92.29
2023-03-13T05:10:02.822Z,92.70
2023-03-13T05:11:02.539Z,92.80
2023-03-13T05:12:02.967Z,92.45
2023-03-13T05:13:02.747Z,92.35
2023-03-13T05:14:03.200Z,92.49
2023-03-13T05:15:02.700Z,92.45
2023-03-13T05:16:03.267Z,92.60
2023-03-13T05:17:03.254Z,92.80
2023-03-13T05:18:03.052Z,92.90
2023-03-13T05:19:03.420Z,92.80
2023-03-13T05:20:03.071Z,92.70
2023-03-13T05:21:02.855Z,92.80
2023-03-13T05:22:02.406Z,92.80
2023-03-13T05:23:02.100Z,92.96
2023-03-13T05:24:02.441Z,93.06
2023-03-13T05:25:02.216Z,92.76
2023-03-13T05:26:01.938Z,92.96
2023-03-13T05:27:03.015Z,92.65
2023-03-13T05:28:02.819Z,92.55
2023-03-13T05:29:03.360Z,92.65
2023-03-13T05:30:02.878Z,92.55
2023-03-13T05:31:02.689Z,92.76
2023-03-13T05:32:03.009Z,92.65
2023-03-13T05:33:02.808Z,92.76
2023-03-13T05:34:02.616Z,92.76
2023-03-13T05:35:03.184Z,92.55
2023-03-13T05:36:02.855Z,92.61
2023-03-13T05:37:03.277Z,92.35
2023-03-13T05:38:02.847Z,92.30
2023-03-13T05:39:03.287Z,92.51
2023-03-13T05:40:03.038Z,92.71
2023-03-13T05:41:02.869Z,92.61
2023-03-13T05:42:02.961Z,92.41
2023-03-13T05:43:02.635Z,92.30
2023-03-13T05:44:02.964Z,92.41
2023-03-13T05:45:02.825Z,92.30
2023-03-13T05:46:02.671Z,92.30
2023-03-13T05:47:04.181Z,92.21
2023-03-13T05:48:02.955Z,92.41
2023-03-13T05:49:03.339Z,92.41
2023-03-13T05:50:03.153Z,92.30
2023-03-13T05:51:02.987Z,92.30
2023-03-13T05:52:02.535Z,92.30
2023-03-13T05:53:02.061Z,92.51
2023-03-13T05:54:02.011Z,92.21
2023-03-13T05:55:02.512Z,92.30
2023-03-13T05:56:02.071Z,92.30
2023-03-13T05:57:02.509Z,92.30
2023-03-13T05:58:02.452Z,92.21
2023-03-13T05:59:01.971Z,92.30
2023-03-13T06:00:02.164Z,92.30
2023-03-13T06:01:01.997Z,92.30
2023-03-13T06:02:03.074Z,92.30
2023-03-13T06:03:02.832Z,92.41
2023-03-13T06:04:02.859Z,92.51
2023-03-13T06:05:02.820Z,92.51
2023-03-13T06:06:02.819Z,92.30
2023-03-13T06:07:01.849Z,92.30
2023-03-13T06:08:02.291Z,92.30
2023-03-13T06:09:02.281Z,92.36
2023-03-13T06:10:01.817Z,92.36
2023-03-13T06:11:01.699Z,92.47
2023-03-13T06:12:02.215Z,92.57
2023-03-13T06:13:17.222Z,92.47
2023-03-13T06:14:02.616Z,92.47
2023-03-13T06:15:02.503Z,92.57
2023-03-13T06:16:02.615Z,92.47
2023-03-13T06:17:01.710Z,92.47
2023-03-13T06:18:01.632Z,92.57
2023-03-13T06:19:02.121Z,92.57
2023-03-13T06:20:01.879Z,92.47
2023-03-13T06:21:01.724Z,92.67
2023-03-13T06:22:02.249Z,92.57
2023-03-13T06:23:02.811Z,92.57
2023-03-13T06:24:02.372Z,92.36
2023-03-13T06:25:02.243Z,92.22
2023-03-13T06:26:02.832Z,92.12
2023-03-13T06:27:02.440Z,92.22
2023-03-13T06:28:02.897Z,92.12
2023-03-13T06:29:02.873Z,92.12
2023-03-13T06:30:02.893Z,92.12
2023-03-13T06:31:02.732Z,92.12
2023-03-13T06:32:02.753Z,92.02
2023-03-13T06:33:02.732Z,91.91
2023-03-13T06:34:02.711Z,91.91
2023-03-13T06:35:02.752Z,91.87
2023-03-13T06:36:02.701Z,91.67
2023-03-13T06:37:02.574Z,91.47
2023-03-13T06:38:02.520Z,91.36
2023-03-13T06:39:02.813Z,91.47
2023-03-13T06:40:02.729Z,91.47
2023-03-13T06:41:02.561Z,91.56
2023-03-13T06:42:02.068Z,91.67
2023-03-13T06:43:02.636Z,91.67
2023-03-13T06:44:02.302Z,91.47
2023-03-13T06:45:02.433Z,91.56
2023-03-13T06:46:02.234Z,91.47
2023-03-13T06:47:01.889Z,91.47
2023-03-13T06:48:01.798Z,91.47
2023-03-13T06:49:01.640Z,91.56
2023-03-13T06:50:02.201Z,91.56
2023-03-13T06:51:01.748Z,91.36
2023-03-13T06:52:02.338Z,91.36
2023-03-13T06:53:02.132Z,91.47
2023-03-13T06:54:02.710Z,91.47
2023-03-13T06:55:02.340Z,91.12
2023-03-13T06:56:02.169Z,91.22
2023-03-13T06:57:02.634Z,91.22
2023-03-13T06:58:02.636Z,91.22
2023-03-13T06:59:03.067Z,91.02
2023-03-13T07:00:02.640Z,91.02
2023-03-13T07:01:02.624Z,90.61
2023-03-13T07:02:03.097Z,90.71
2023-03-13T07:03:02.942Z,90.71
2023-03-13T07:04:03.600Z,90.92
2023-03-13T07:05:03.293Z,90.71
2023-03-13T07:06:03.086Z,90.81
2023-03-13T07:07:02.660Z,90.92
2023-03-13T07:08:02.990Z,90.81
2023-03-13T07:09:02.873Z,90.81
2023-03-13T07:10:02.681Z,90.61
2023-03-13T07:11:02.642Z,90.61
2023-03-13T07:12:03.304Z,90.51
2023-03-13T07:13:03.155Z,90.51
2023-03-13T07:14:15.812Z,90.41
2023-03-13T07:15:03.559Z,90.51
2023-03-13T07:16:03.205Z,90.71
2023-03-13T07:17:02.714Z,90.71
2023-03-13T07:18:02.545Z,90.41
2023-03-13T07:19:02.644Z,90.16
2023-03-13T07:20:03.093Z,89.96
2023-03-13T07:21:02.883Z,90.06
2023-03-13T07:22:03.338Z,89.86
2023-03-13T07:23:03.151Z,90.06
2023-03-13T07:24:03.709Z,90.16
2023-03-13T07:25:03.153Z,90.06
2023-03-13T07:26:03.372Z,90.16
2023-03-13T07:27:07.585Z,90.06
2023-03-13T07:28:02.708Z,90.16
2023-03-13T07:29:02.551Z,89.96
2023-03-13T07:30:02.732Z,89.86
2023-03-13T07:31:02.972Z,89.96
2023-03-13T07:32:03.654Z,89.45
2023-03-13T07:33:03.436Z,89.65
2023-03-13T07:34:03.113Z,89.65
2023-03-13T07:35:03.598Z,89.45
2023-03-13T07:36:03.306Z,89.04
2023-03-13T07:37:02.781Z,88.95
2023-03-13T07:38:02.674Z,88.64
2023-03-13T07:39:02.562Z,88.34
2023-03-13T07:40:02.469Z,88.13
2023-03-13T07:41:02.885Z,87.43
2023-03-13T07:42:03.216Z,87.08
2023-03-13T07:43:03.394Z,86.57
2023-03-13T07:44:03.063Z,87.38
2023-03-13T07:45:02.806Z,87.38
2023-03-13T07:46:03.541Z,86.77
2023-03-13T07:47:03.241Z,86.98
2023-03-13T07:48:02.989Z,87.18
2023-03-13T07:49:03.448Z,87.08
2023-03-13T07:50:03.083Z,87.08
2023-03-13T07:51:02.971Z,87.28
2023-03-13T07:52:03.534Z,85.96
2023-03-13T07:53:03.482Z,86.47
2023-03-13T07:54:03.565Z,86.47
2023-03-13T07:55:03.674Z,86.37
2023-03-13T07:56:03.329Z,86.16
2023-03-13T07:57:03.006Z,85.56
2023-03-13T07:58:02.993Z,85.76
2023-03-13T07:59:02.603Z,85.66
2023-03-13T08:00:03.259Z,85.96
2023-03-13T08:01:02.922Z,86.33
2023-03-13T08:02:02.580Z,86.63
2023-03-13T08:03:02.324Z,85.93
2023-03-13T08:04:02.537Z,85.72
2023-03-13T08:05:02.353Z,84.81
2023-03-13T08:06:02.386Z,85.01
2023-03-13T08:07:02.877Z,85.01
2023-03-13T08:08:02.647Z,85.11
2023-03-13T08:09:02.964Z,84.41
2023-03-13T08:10:02.938Z,84.70
2023-03-13T08:11:02.636Z,84.47
2023-03-13T08:12:02.608Z,83.96
2023-03-13T08:13:02.202Z,84.27
2023-03-13T08:14:02.095Z,84.47
2023-03-13T08:15:02.467Z,84.47
2023-03-13T08:16:02.232Z,84.06
2023-03-13T08:17:02.769Z,84.27
2023-03-13T08:18:02.804Z,83.55
2023-03-13T08:19:02.419Z,83.35
2023-03-13T08:20:02.417Z,83.45
2023-03-13T08:21:02.585Z,83.25
2023-03-13T08:22:03.215Z,82.64
2023-03-13T08:23:02.961Z,82.60
2023-03-13T08:24:02.872Z,82.40
2023-03-13T08:25:02.757Z,81.69
2023-03-13T08:26:03.047Z,81.29
2023-03-13T08:27:03.377Z,81.90
2023-03-13T08:28:03.491Z,81.79
2023-03-13T08:29:03.126Z,81.90
2023-03-13T08:30:03.509Z,81.99
2023-03-13T08:31:02.878Z,82.20
2023-03-13T08:32:03.157Z,81.69
2023-03-13T08:33:03.089Z,81.90
2023-03-13T08:34:02.766Z,82.10
2023-03-13T08:35:02.769Z,82.20
2023-03-13T08:36:02.650Z,81.59
2023-03-13T08:37:02.907Z,81.69
2023-03-13T08:38:02.833Z,82.10
2023-03-13T08:39:02.630Z,81.49
2023-03-13T08:40:02.492Z,81.09
2023-03-13T08:41:02.409Z,81.49
2023-03-13T08:42:03.332Z,81.29
2023-03-13T08:43:03.129Z,80.98
2023-03-13T08:44:03.457Z,81.09
2023-03-13T08:45:03.350Z,81.29
2023-03-13T08:46:03.244Z,80.68
2023-03-13T08:47:02.298Z,80.58
2023-03-13T08:48:02.479Z,80.47
2023-03-13T08:49:02.432Z,80.68
2023-03-13T08:50:02.935Z,80.98
2023-03-13T08:51:02.370Z,80.47
2023-03-13T08:52:02.932Z,80.78
2023-03-13T08:53:03.486Z,80.88
2023-03-13T08:54:03.385Z,80.58
2023-03-13T08:55:03.012Z,80.88
2023-03-13T08:56:03.222Z,80.78
2023-03-13T08:57:03.613Z,80.78
2023-03-13T08:58:03.276Z,81.18
2023-03-13T08:59:03.064Z,80.24
2023-03-13T09:00:03.629Z,80.54
2023-03-13T09:01:03.233Z,80.44
2023-03-13T09:02:03.134Z,80.44
2023-03-13T09:03:03.539Z,80.54
2023-03-13T09:04:04.749Z,80.84
2023-03-13T09:05:03.261Z,81.15
2023-03-13T09:06:03.617Z,81.35
2023-03-13T09:07:03.257Z,81.15
2023-03-13T09:08:03.355Z,81.15
2023-03-13T09:09:03.860Z,80.84
2023-03-13T09:10:03.900Z,81.25
2023-03-13T09:11:03.316Z,81.45
2023-03-13T09:12:02.832Z,81.45
2023-03-13T09:13:03.336Z,81.25
2023-03-13T09:14:02.711Z,81.35
2023-03-13T09:15:02.909Z,81.25
2023-03-13T09:16:02.892Z,81.35
2023-03-13T09:17:03.333Z,81.45
2023-03-13T09:18:03.309Z,81.45
2023-03-13T09:19:03.515Z,81.65
2023-03-13T09:20:03.475Z,81.76
2023-03-13T09:21:03.752Z,81.96
2023-03-13T09:22:02.585Z,82.36
2023-03-13T09:23:03.019Z,82.46
2023-03-13T09:24:02.536Z,82.06
2023-03-13T09:25:02.734Z,81.96
2023-03-13T09:26:02.946Z,81.85
2023-03-13T09:27:02.841Z,82.06
2023-03-13T09:28:02.712Z,81.96
2023-03-13T09:29:03.121Z,82.06
2023-03-13T09:30:02.721Z,81.85
2023-03-13T09:31:03.065Z,82.06
2023-03-13T09:32:02.827Z,82.26
2023-03-13T09:33:02.919Z,82.06
2023-03-13T09:34:02.803Z,82.16
2023-03-13T09:35:03.157Z,82.46
2023-03-13T09:36:03.303Z,82.16
2023-03-13T09:37:03.109Z,82.36
2023-03-13T09:38:03.587Z,82.36
2023-03-13T09:39:03.058Z,82.56
2023-03-13T09:40:03.559Z,82.56
2023-03-13T09:41:06.316Z,82.76
2023-03-13T09:42:03.351Z,82.97
2023-03-13T09:43:03.424Z,82.97
2023-03-13T09:44:03.850Z,82.97
2023-03-13T09:45:03.475Z,83.27
2023-03-13T09:46:03.276Z,83.17
2023-03-13T09:47:03.099Z,83.27
2023-03-13T09:48:03.308Z,83.27
2023-03-13T09:49:03.393Z,83.68
2023-03-13T09:50:03.281Z,83.88
2023-03-13T09:51:03.154Z,83.98
2023-03-13T09:52:03.649Z,84.19
2023-03-13T09:53:03.365Z,84.39
2023-03-13T09:54:03.287Z,84.59
2023-03-13T09:55:03.358Z,84.73
2023-03-13T09:56:03.817Z,84.93
2023-03-13T09:57:03.618Z,85.03
2023-03-13T09:58:03.677Z,85.44
2023-03-13T09:59:03.674Z,85.54
2023-03-13T10:00:03.820Z,85.64
2023-03-13T10:01:03.735Z,85.64
2023-03-13T10:02:02.269Z,85.94
2023-03-13T10:03:02.161Z,86.05
2023-03-13T10:04:02.088Z,86.15
2023-03-13T10:05:01.949Z,86.15
2023-03-13T10:06:02.049Z,86.45
2023-03-13T10:07:02.513Z,86.55
2023-03-13T10:08:02.358Z,86.85
2023-03-13T10:09:02.754Z,87.05
2023-03-13T10:10:02.372Z,87.05
2023-03-13T10:11:02.220Z,87.16
2023-03-13T10:12:02.757Z,87.36
2023-03-13T10:13:02.614Z,87.36
2023-03-13T10:14:02.491Z,87.30
2023-03-13T10:15:03.153Z,87.30
2023-03-13T10:16:03.008Z,87.51
2023-03-13T10:17:02.817Z,87.66
2023-03-13T10:18:02.706Z,87.56
2023-03-13T10:19:02.479Z,87.66
2023-03-13T10:20:02.953Z,87.51
2023-03-13T10:21:02.632Z,87.56
2023-03-13T10:22:02.117Z,87.71
2023-03-13T10:23:01.815Z,87.71
2023-03-13T10:24:02.341Z,87.91
2023-03-13T10:25:01.743Z,87.77
2023-03-13T10:26:02.085Z,87.81
2023-03-13T10:27:02.480Z,87.77
2023-03-13T10:28:02.348Z,87.87
2023-03-13T10:29:02.129Z,87.77
2023-03-13T10:30:02.659Z,87.46
2023-03-13T10:31:02.519Z,87.56
2023-03-13T10:32:02.837Z,87.56
2023-03-13T10:33:02.695Z,87.77
2023-03-13T10:34:02.533Z,87.56
2023-03-13T10:35:02.649Z,87.56
2023-03-13T10:36:02.956Z,87.66
2023-03-13T10:37:02.371Z,87.66
2023-03-13T10:38:01.990Z,87.46
2023-03-13T10:39:02.192Z,87.26
2023-03-13T10:40:02.191Z,87.56
2023-03-13T10:41:01.954Z,87.16
2023-03-13T10:42:02.473Z,87.36
2023-03-13T10:43:02.333Z,87.36
2023-03-13T10:44:02.211Z,87.36
2023-03-13T10:45:02.279Z,87.36
2023-03-13T10:46:02.225Z,87.16
2023-03-13T10:47:02.826Z,87.26
2023-03-13T10:48:02.505Z,87.56
2023-03-13T10:49:02.533Z,87.77
2023-03-13T10:50:02.453Z,87.87
2023-03-13T10:51:02.562Z,87.87
2023-03-13T10:52:02.721Z,87.66
2023-03-13T10:53:03.135Z,87.56
2023-03-13T10:54:02.736Z,87.56
2023-03-13T10:55:02.541Z,87.62
2023-03-13T10:56:02.391Z,88.02
2023-03-13T10:57:02.827Z,87.02
2023-03-13T10:58:02.634Z,87.02
2023-03-13T10:59:02.825Z,87.12
2023-03-13T11:00:04.237Z,87.12
2023-03-13T11:01:02.577Z,87.32
2023-03-13T11:02:03.144Z,87.12
2023-03-13T11:03:03.319Z,87.12
2023-03-13T11:04:03.061Z,87.22
2023-03-13T11:05:02.789Z,87.22
2023-03-13T11:06:02.636Z,87.32
2023-03-13T11:07:03.552Z,87.42
2023-03-13T11:08:03.412Z,87.52
2023-03-13T11:09:03.209Z,87.22
2023-03-13T11:10:03.564Z,87.12
2023-03-13T11:11:03.412Z,86.82
2023-03-13T11:12:02.977Z,86.91
2023-03-13T11:13:02.634Z,86.91
2023-03-13T11:14:02.486Z,86.91
2023-03-13T11:15:03.072Z,86.91
2023-03-13T11:16:02.678Z,87.22
2023-03-13T11:17:03.180Z,86.91
2023-03-13T11:18:03.180Z,87.52
2023-03-13T11:19:02.791Z,87.88
2023-03-13T11:20:02.740Z,88.39
2023-03-13T11:21:15.934Z,88.39
2023-03-13T11:22:03.323Z,88.59
2023-03-13T11:23:02.917Z,89.20
2023-03-13T11:24:03.130Z,88.70
2023-03-13T11:25:03.289Z,89.16
2023-03-13T11:26:02.992Z,89.36
2023-03-13T11:27:05.124Z,89.16
2023-03-13T11:28:03.436Z,88.35
2023-03-13T11:29:03.235Z,88.96
2023-03-13T11:30:03.155Z,88.35
2023-03-13T11:31:03.605Z,88.75
2023-03-13T11:32:04.799Z,88.75
2023-03-13T11:33:03.444Z,88.55
2023-03-13T11:34:03.230Z,88.35
2023-03-13T11:35:03.690Z,87.95
2023-03-13T11:36:03.346Z,87.54
2023-03-13T11:37:03.926Z,87.44
2023-03-13T11:38:03.824Z,87.13
2023-03-13T11:39:03.566Z,87.13
2023-03-13T11:40:03.701Z,87.54
2023-03-13T11:41:04.093Z,87.44
2023-03-13T11:42:03.323Z,87.24
2023-03-13T11:43:14.268Z,87.04
2023-03-13T11:44:02.796Z,86.73
2023-03-13T11:45:03.237Z,86.33
2023-03-13T11:46:03.272Z,86.53
2023-03-13T11:47:03.622Z,86.43
2023-03-13T11:48:03.175Z,86.19
2023-03-13T11:49:03.055Z,86.29
2023-03-13T11:50:03.125Z,85.48
2023-03-13T11:51:03.220Z,84.97
2023-03-13T11:52:03.829Z,84.33
2023-03-13T11:53:03.553Z,84.53
2023-03-13T11:54:05.239Z,83.42
2023-03-13T11:55:03.392Z,83.48
2023-03-13T11:56:03.796Z,83.48
2023-03-13T11:57:03.254Z,83.48
2023-03-13T11:58:03.045Z,83.78
2023-03-13T11:59:02.972Z,81.87
2023-03-13T12:00:02.849Z,81.05
2023-03-13T12:01:03.371Z,82.33
2023-03-13T12:02:01.952Z,81.82
2023-03-13T12:03:02.239Z,81.82
2023-03-13T12:04:02.125Z,81.82
2023-03-13T12:05:02.081Z,81.82
2023-03-13T12:06:02.557Z,82.03
2023-03-13T12:07:04.612Z,82.33
2023-03-13T12:08:02.701Z,80.11
2023-03-13T12:09:02.437Z,80.11
2023-03-13T12:10:02.347Z,81.02
2023-03-13T12:11:02.827Z,81.12
2023-03-13T12:12:02.638Z,80.31
2023-03-13T12:13:02.251Z,80.11
2023-03-13T12:14:01.895Z,80.31
2023-03-13T12:15:01.835Z,79.71
2023-03-13T12:16:01.768Z,79.81
2023-03-13T12:17:01.660Z,79.71
2023-03-13T12:18:02.171Z,79.81
2023-03-13T12:19:02.064Z,79.10
2023-03-13T12:20:02.109Z,78.09
2023-03-13T12:21:01.971Z,77.66
2023-03-13T12:22:02.135Z,77.75
2023-03-13T12:23:02.599Z,78.36
2023-03-13T12:24:02.675Z,78.06
2023-03-13T12:25:04.474Z,78.46
2023-03-13T12:26:02.380Z,77.66
2023-03-13T12:27:02.272Z,77.75
2023-03-13T12:28:02.906Z,78.06
2023-03-13T12:29:02.558Z,77.95
2023-03-13T12:30:02.476Z,78.16
2023-03-13T12:31:03.090Z,78.76
2023-03-13T12:32:02.801Z,78.86
2023-03-13T12:33:02.427Z,78.96
2023-03-13T12:34:02.380Z,77.55
2023-03-13T12:35:02.256Z,76.95
2023-03-13T12:36:02.141Z,76.95
2023-03-13T12:37:02.624Z,77.04
2023-03-13T12:38:02.172Z,77.04
2023-03-13T12:39:02.113Z,77.45
2023-03-13T12:40:02.627Z,77.95
2023-03-13T12:41:02.450Z,78.26
2023-03-13T12:42:02.564Z,78.66
2023-03-13T12:43:02.326Z,78.36
2023-03-13T12:44:09.169Z,78.36
2023-03-13T12:45:02.749Z,78.06
2023-03-13T12:46:02.902Z,78.46
2023-03-13T12:47:02.509Z,78.56
2023-03-13T12:48:02.204Z,78.76
2023-03-13T12:49:01.921Z,78.86
2023-03-13T12:50:02.397Z,79.27
2023-03-13T12:51:02.347Z,78.76
2023-03-13T12:52:02.258Z,78.66